Time;durP1;ratioP1;P1;durP2;ratioP2;P2;SDS_P1;SDS_P2;PMS_P1;PMS_P2;Temp;Humidity;BMP_temperature;BMP_pressure;BME280_temperature;BME280_humidity;BME280_pressure;Samples;Min_cycle;Max_cycle;Signal;HPM_P1;HPM_P2
2023/11/10 00:01:04;;;;;;;1.90;1.20;;;8.20;99.90;;;;;;4977250;28;20467;-81
2023/11/10 00:03:30;;;;;;;3.70;1.20;;;8.20;99.90;;;;;;4970389;28;20540;-83
2023/11/10 00:05:59;;;;;;;3.70;1.20;;;8.20;99.90;;;;;;4978342;28;20467;-79
2023/11/10 00:08:25;;;;;;;2.77;1.13;;;8.10;99.90;;;;;;4977973;28;20869;-79
2023/11/10 00:10:53;;;;;;;3.00;1.00;;;8.10;99.90;;;;;;4978308;28;20461;-81
2023/11/10 00:13:19;;;;;;;3.17;1.03;;;8.20;99.90;;;;;;4978683;28;20462;-80
2023/11/10 00:15:46;;;;;;;2.20;0.90;;;8.30;99.90;;;;;;4978745;28;20485;-81
2023/11/10 00:18:13;;;;;;;3.37;1.20;;;8.40;99.90;;;;;;4978086;28;20489;-81
2023/11/10 00:20:40;;;;;;;6.10;1.20;;;8.30;99.90;;;;;;4978448;28;20471;-80
2023/11/10 00:23:09;;;;;;;3.00;1.03;;;8.20;99.90;;;;;;4977630;28;20530;-81
2023/11/10 00:25:36;;;;;;;2.83;1.10;;;8.30;99.90;;;;;;4982915;28;20480;-80
2023/11/10 00:28:03;;;;;;;6.07;1.13;;;8.20;99.90;;;;;;4985959;28;20593;-79
2023/11/10 00:30:30;;;;;;;5.17;1.03;;;8.20;99.90;;;;;;4980718;28;20962;-81
2023/11/10 00:32:57;;;;;;;2.53;1.00;;;8.20;99.90;;;;;;4984412;28;20532;-81
2023/11/10 00:35:24;;;;;;;4.73;1.27;;;8.20;99.90;;;;;;4982812;28;20544;-81
2023/11/10 00:37:51;;;;;;;3.43;1.33;;;8.20;99.90;;;;;;4981015;28;20512;-81
2023/11/10 00:40:20;;;;;;;4.53;1.43;;;8.20;99.90;;;;;;4982578;28;20532;-81
2023/11/10 00:42:47;;;;;;;4.43;1.20;;;8.20;99.90;;;;;;4980505;28;20530;-82
2023/11/10 00:45:14;;;;;;;2.70;0.93;;;8.30;99.90;;;;;;4978601;28;20481;-81
2023/11/10 00:47:41;;;;;;;3.03;1.30;;;8.20;99.90;;;;;;4978800;28;20482;-81
2023/11/10 00:50:10;;;;;;;5.10;1.53;;;8.30;99.90;;;;;;4977774;28;20467;-82
2023/11/10 00:52:37;;;;;;;3.53;0.90;;;8.30;99.90;;;;;;4978807;28;20533;-79
2023/11/10 00:55:06;;;;;;;2.60;1.07;;;8.30;99.90;;;;;;4978051;28;20486;-81
2023/11/10 00:57:34;;;;;;;3.93;1.10;;;8.40;99.90;;;;;;4978398;28;20546;-81
2023/11/10 01:00:01;;;;;;;10.13;1.30;;;8.40;99.90;;;;;;4978123;28;20454;-81
2023/11/10 01:02:28;;;;;;;2.23;0.90;;;8.40;99.90;;;;;;4978994;28;20450;-80
2023/11/10 01:04:54;;;;;;;3.60;1.00;;;8.40;99.90;;;;;;4980257;28;20503;-80
2023/11/10 01:07:21;;;;;;;3.80;0.97;;;8.50;99.90;;;;;;4976741;28;20472;-79
2023/11/10 01:09:48;;;;;;;2.90;1.10;;;8.50;99.90;;;;;;4976827;28;20870;-81
2023/11/10 01:12:15;;;;;;;6.40;0.90;;;8.50;99.90;;;;;;4979138;28;20962;-81
2023/11/10 01:14:44;;;;;;;2.77;0.90;;;8.50;99.90;;;;;;4977000;28;20473;-82
2023/11/10 01:17:11;;;;;;;4.80;1.27;;;8.50;99.90;;;;;;4979243;28;20500;-80
2023/11/10 01:19:38;;;;;;;3.07;0.97;;;8.50;99.90;;;;;;4976742;28;20478;-81
2023/11/10 01:22:05;;;;;;;2.23;0.90;;;8.30;99.90;;;;;;4977215;28;20541;-79
2023/11/10 01:24:33;;;;;;;2.23;0.90;;;8.30;99.90;;;;;;4976767;28;20528;-82
2023/11/10 01:27:00;;;;;;;3.00;1.07;;;8.20;99.90;;;;;;4976423;28;20467;-80
2023/11/10 01:29:27;;;;;;;1.80;1.17;;;8.20;99.90;;;;;;4976452;28;20878;-83
2023/11/10 01:31:55;;;;;;;2.10;1.00;;;8.10;99.90;;;;;;4975812;28;20549;-81
2023/11/10 01:34:22;;;;;;;2.27;1.10;;;8.10;99.90;;;;;;4975905;28;20485;-81
2023/11/10 01:36:49;;;;;;;2.97;1.10;;;8.10;99.90;;;;;;4975239;28;20458;-81
2023/11/10 01:39:16;;;;;;;1.83;0.90;;;8.10;99.90;;;;;;4973991;28;20458;-83
2023/11/10 01:41:42;;;;;;;3.10;1.30;;;8.10;99.90;;;;;;4968479;28;20894;-81
2023/11/10 01:44:09;;;;;;;3.90;1.07;;;8.10;99.90;;;;;;4975823;28;20468;-82
2023/11/10 01:46:46;;;;;;;2.20;1.03;;;8.10;99.90;;;;;;4974712;28;20469;-81
2023/11/10 01:49:18;;;;;;;3.87;1.10;;;8.10;99.90;;;;;;4974100;28;20502;-80
2023/11/10 01:51:46;;;;;;;6.00;1.40;;;8.10;99.90;;;;;;4968551;28;20544;-81
2023/11/10 01:54:17;;;;;;;1.70;1.00;;;8.10;99.90;;;;;;4974868;28;20462;-80
2023/11/10 01:56:46;;;;;;;4.43;1.00;;;8.20;99.90;;;;;;4974893;28;20470;-82
2023/11/10 01:59:14;;;;;;;4.20;1.30;;;8.10;99.90;;;;;;4974232;28;20469;-81
2023/11/10 02:01:42;;;;;;;2.37;1.20;;;8.20;99.90;;;;;;4966373;28;20837;-82
2023/11/10 02:04:11;;;;;;;6.07;1.40;;;8.20;99.90;;;;;;4973645;28;20471;-83
2023/11/10 02:06:41;;;;;;;1.93;1.23;;;8.10;99.90;;;;;;4974239;28;20562;-80
2023/11/10 02:09:08;;;;;;;7.07;1.57;;;8.20;99.90;;;;;;4973535;28;20493;-80
2023/11/10 02:11:38;;;;;;;3.90;1.23;;;8.30;99.90;;;;;;4974627;28;20457;-82
2023/11/10 02:14:08;;;;;;;4.27;0.97;;;8.30;99.90;;;;;;4976122;28;20457;-80
2023/11/10 02:16:36;;;;;;;2.67;1.20;;;8.20;99.90;;;;;;4974306;28;20545;-81
2023/11/10 02:19:04;;;;;;;1.60;1.00;;;8.20;99.90;;;;;;4974669;28;20881;-83
2023/11/10 02:21:31;;;;;;;4.00;1.23;;;8.20;99.90;;;;;;4979927;28;20812;-83
2023/11/10 02:24:03;;;;;;;3.73;1.00;;;8.10;99.90;;;;;;4978306;28;20454;-83
2023/11/10 02:26:31;;;;;;;2.33;1.17;;;8.10;99.90;;;;;;4978079;28;20535;-82
2023/11/10 02:28:58;;;;;;;4.43;0.97;;;8.20;99.90;;;;;;4977686;28;20525;-81
2023/11/10 02:31:27;;;;;;;4.57;1.43;;;8.20;99.90;;;;;;4978120;28;20541;-81
2023/11/10 02:33:57;;;;;;;2.90;0.97;;;8.20;99.90;;;;;;4976640;28;20465;-81
2023/11/10 02:36:23;;;;;;;4.33;1.43;;;8.20;99.90;;;;;;4976912;28;20485;-82
2023/11/10 02:38:52;;;;;;;1.40;0.93;;;8.20;99.90;;;;;;4977079;28;20545;-81
2023/11/10 02:41:20;;;;;;;3.97;1.70;;;8.30;99.90;;;;;;4977166;28;20457;-81
2023/11/10 02:43:49;;;;;;;2.47;1.20;;;8.20;99.90;;;;;;4978519;28;20473;-83
2023/11/10 02:46:16;;;;;;;7.50;1.67;;;8.20;99.90;;;;;;4978158;28;20482;-82
2023/11/10 02:48:43;;;;;;;2.60;1.07;;;8.20;99.90;;;;;;4977383;28;20489;-83
2023/11/10 02:51:10;;;;;;;3.03;1.10;;;8.20;99.90;;;;;;4977527;28;20524;-82
2023/11/10 02:53:36;;;;;;;3.40;1.07;;;8.20;99.90;;;;;;4977391;28;20452;-80
2023/11/10 02:56:06;;;;;;;5.50;1.20;;;8.20;99.90;;;;;;4976550;28;20477;-80
2023/11/10 02:58:33;;;;;;;5.53;1.20;;;8.30;99.90;;;;;;4968845;28;20486;-80
2023/11/10 03:01:02;;;;;;;3.17;1.20;;;8.20;99.90;;;;;;4976810;28;20462;-80
2023/11/10 03:03:31;;;;;;;3.27;1.30;;;8.20;99.90;;;;;;4976219;28;20486;-79
2023/11/10 03:05:59;;;;;;;3.67;1.03;;;8.30;99.90;;;;;;4976538;28;20481;-80
2023/11/10 03:08:26;;;;;;;4.43;1.10;;;8.30;99.90;;;;;;4975999;28;20465;-82
2023/11/10 03:10:53;;;;;;;3.43;1.00;;;8.30;99.90;;;;;;4976395;28;20467;-81
2023/11/10 03:13:21;;;;;;;5.30;1.50;;;8.30;99.90;;;;;;4976619;28;20917;-80
2023/11/10 03:15:48;;;;;;;3.90;1.03;;;8.30;99.90;;;;;;4975965;28;20481;-80
2023/11/10 03:18:16;;;;;;;3.27;1.43;;;8.30;99.90;;;;;;4976180;28;20471;-82
2023/11/10 03:20:44;;;;;;;7.03;0.97;;;8.30;99.90;;;;;;4978321;28;20466;-82
2023/11/10 03:23:11;;;;;;;3.63;1.20;;;8.30;99.90;;;;;;4975808;28;20466;-81
2023/11/10 03:25:38;;;;;;;2.90;1.27;;;8.40;99.90;;;;;;4975926;28;21022;-80
2023/11/10 03:28:04;;;;;;;4.57;1.30;;;8.40;99.90;;;;;;4975708;28;20946;-77
2023/11/10 03:30:31;;;;;;;2.53;1.20;;;8.50;99.90;;;;;;4975002;28;21032;-80
2023/11/10 03:32:58;;;;;;;2.43;1.47;;;8.50;99.90;;;;;;4975506;28;20524;-79
2023/11/10 03:35:26;;;;;;;3.57;1.20;;;8.40;99.90;;;;;;4975854;28;20534;-79
2023/11/10 03:37:53;;;;;;;3.10;1.17;;;8.40;99.90;;;;;;4976604;28;20859;-81
2023/11/10 03:40:21;;;;;;;3.40;1.20;;;8.50;99.90;;;;;;4975708;28;20454;-80
2023/11/10 03:42:48;;;;;;;3.33;1.30;;;8.50;99.90;;;;;;4975966;28;20512;-81
2023/11/10 03:45:15;;;;;;;2.83;1.13;;;8.50;99.90;;;;;;4974896;28;20496;-81
2023/11/10 03:47:42;;;;;;;2.00;1.17;;;8.50;99.90;;;;;;4975681;28;20472;-81
2023/11/10 03:50:10;;;;;;;2.50;1.30;;;8.50;99.90;;;;;;4975676;28;20498;-82
2023/11/10 03:52:38;;;;;;;6.80;1.77;;;8.40;99.90;;;;;;4975850;28;20457;-79
2023/11/10 03:55:05;;;;;;;4.20;1.40;;;8.50;99.90;;;;;;4975493;28;20474;-80
2023/11/10 03:57:32;;;;;;;3.97;1.90;;;8.50;99.90;;;;;;4975383;28;20461;-81
2023/11/10 03:59:59;;;;;;;2.43;0.90;;;8.60;99.90;;;;;;4975534;28;20455;-80
2023/11/10 04:02:25;;;;;;;4.33;1.30;;;8.70;99.90;;;;;;4975938;28;20462;-79
2023/11/10 04:04:52;;;;;;;5.63;0.90;;;8.70;99.90;;;;;;4975646;28;20475;-80
2023/11/10 04:07:19;;;;;;;6.53;2.60;;;8.70;99.90;;;;;;4975457;28;20635;-81
2023/11/10 04:09:47;;;;;;;3.67;1.20;;;8.70;99.90;;;;;;4975563;28;20521;-80
2023/11/10 04:12:14;;;;;;;1.87;1.10;;;8.70;99.90;;;;;;4976142;28;20467;-81
2023/11/10 04:14:41;;;;;;;1.60;1.00;;;8.70;99.90;;;;;;4983144;28;20478;-81
2023/11/10 04:17:08;;;;;;;5.63;1.20;;;8.70;99.90;;;;;;4980716;28;20470;-81
2023/11/10 04:19:34;;;;;;;4.27;1.33;;;8.70;99.90;;;;;;4979712;28;20478;-81
2023/11/10 04:22:01;;;;;;;2.67;0.97;;;8.80;99.90;;;;;;4977395;28;20453;-80
2023/11/10 04:24:28;;;;;;;4.60;2.00;;;8.70;99.90;;;;;;4975776;28;20545;-81
2023/11/10 04:26:56;;;;;;;4.40;1.73;;;8.70;99.90;;;;;;4976072;28;20845;-82
2023/11/10 04:29:23;;;;;;;3.80;1.23;;;8.80;99.90;;;;;;4976150;28;20580;-82
2023/11/10 04:31:50;;;;;;;3.37;1.20;;;8.70;99.90;;;;;;4977309;28;20463;-79
2023/11/10 04:34:17;;;;;;;3.07;1.20;;;8.80;99.90;;;;;;4977592;28;20845;-80
2023/11/10 04:36:45;;;;;;;2.63;1.17;;;8.80;99.90;;;;;;4977405;28;20949;-80
2023/11/10 04:39:12;;;;;;;4.07;1.10;;;8.70;99.90;;;;;;4975907;28;20463;-80
2023/11/10 04:41:39;;;;;;;2.17;0.90;;;8.70;99.90;;;;;;4975619;28;20945;-81
2023/11/10 04:44:08;;;;;;;4.43;1.30;;;8.70;99.90;;;;;;4974917;28;20479;-78
2023/11/10 04:46:39;;;;;;;3.90;1.40;;;8.60;99.90;;;;;;4974597;28;20454;-81
2023/11/10 04:49:06;;;;;;;3.60;1.00;;;8.60;99.90;;;;;;4970082;28;20481;-81
2023/11/10 04:51:33;;;;;;;3.13;1.13;;;8.60;99.90;;;;;;4975420;28;20462;-81
2023/11/10 04:54:00;;;;;;;4.07;1.07;;;8.60;99.90;;;;;;4974631;28;20540;-80
2023/11/10 04:56:26;;;;;;;3.40;1.40;;;8.70;99.90;;;;;;4974701;28;20839;-80
2023/11/10 04:58:54;;;;;;;3.27;1.27;;;8.60;99.90;;;;;;4974510;28;20470;-81
2023/11/10 05:01:23;;;;;;;4.03;1.30;;;8.70;99.90;;;;;;4974843;28;20856;-81
2023/11/10 05:03:50;;;;;;;3.43;1.20;;;8.70;99.90;;;;;;4974899;28;20464;-81
2023/11/10 05:06:17;;;;;;;3.10;1.60;;;8.70;99.90;;;;;;4974156;28;20993;-82
2023/11/10 05:08:44;;;;;;;3.70;1.23;;;8.60;99.90;;;;;;4974286;28;20462;-81
2023/11/10 05:11:11;;;;;;;3.63;1.10;;;8.50;99.90;;;;;;4974156;28;20497;-81
2023/11/10 05:13:38;;;;;;;7.37;1.27;;;8.40;99.90;;;;;;4974775;28;21026;-81
2023/11/10 05:16:06;;;;;;;3.60;1.60;;;8.30;99.90;;;;;;4974308;28;20487;-78
2023/11/10 05:18:34;;;;;;;2.20;1.17;;;8.30;99.90;;;;;;4966479;28;20459;-80
2023/11/10 05:21:05;;;;;;;3.50;1.33;;;8.40;99.90;;;;;;4974572;28;20457;-79
2023/11/10 05:23:32;;;;;;;1.73;1.10;;;8.30;99.90;;;;;;4974322;28;20460;-80
2023/11/10 05:25:58;;;;;;;5.43;2.20;;;8.40;99.90;;;;;;4973690;28;20482;-81
2023/11/10 05:28:25;;;;;;;4.13;1.50;;;8.40;99.90;;;;;;4969605;28;20537;-80
2023/11/10 05:30:53;;;;;;;5.00;1.33;;;8.40;99.90;;;;;;4974547;28;20493;-79
2023/11/10 05:33:22;;;;;;;4.33;1.20;;;8.40;99.90;;;;;;4974030;28;20481;-81
2023/11/10 05:35:50;;;;;;;4.23;1.20;;;8.50;99.90;;;;;;4974341;28;21091;-80
2023/11/10 05:38:17;;;;;;;5.77;1.90;;;8.50;99.90;;;;;;4974133;28;20586;-80
2023/11/10 05:40:45;;;;;;;8.33;1.30;;;8.60;99.90;;;;;;4977686;28;20466;-82
2023/11/10 05:43:12;;;;;;;3.97;1.20;;;8.60;99.90;;;;;;4977347;28;20464;-81
2023/11/10 05:45:39;;;;;;;3.27;1.40;;;8.70;99.90;;;;;;4977932;28;20482;-82
2023/11/10 05:48:06;;;;;;;6.07;1.43;;;8.70;99.90;;;;;;4977352;28;20464;-80
2023/11/10 05:50:33;;;;;;;5.73;1.40;;;8.80;99.90;;;;;;4978474;28;20496;-81
2023/11/10 05:53:01;;;;;;;2.90;1.27;;;8.80;99.90;;;;;;4978671;28;20509;-81
2023/11/10 05:55:28;;;;;;;6.00;1.60;;;8.80;99.90;;;;;;4981205;28;20482;-82
2023/11/10 05:57:55;;;;;;;5.67;1.57;;;8.90;99.90;;;;;;4981954;28;20549;-80
2023/11/10 06:00:22;;;;;;;2.50;1.30;;;8.90;99.90;;;;;;4979189;28;20462;-81
2023/11/10 06:02:49;;;;;;;2.93;1.10;;;8.90;99.90;;;;;;4977649;28;20526;-80
2023/11/10 06:05:17;;;;;;;3.80;1.40;;;8.90;99.90;;;;;;4978697;28;20486;-82
2023/11/10 06:07:45;;;;;;;2.73;1.47;;;8.90;99.90;;;;;;4977335;28;20465;-82
2023/11/10 06:10:13;;;;;;;3.50;1.47;;;8.80;99.90;;;;;;4977856;28;20486;-81
2023/11/10 06:12:41;;;;;;;4.70;1.27;;;8.90;99.90;;;;;;4978809;28;20549;-82
2023/11/10 06:15:09;;;;;;;3.73;1.30;;;8.90;99.90;;;;;;4978641;28;20524;-82
2023/11/10 06:17:36;;;;;;;5.70;1.47;;;8.80;99.90;;;;;;4977885;28;21048;-80
2023/11/10 06:20:03;;;;;;;2.83;1.20;;;8.80;99.90;;;;;;4978170;28;20459;-82
2023/11/10 06:22:30;;;;;;;2.63;1.40;;;8.80;99.90;;;;;;4973804;28;21029;-84
2023/11/10 06:24:58;;;;;;;2.53;1.30;;;8.80;99.90;;;;;;4978672;28;20499;-85
2023/11/10 06:27:27;;;;;;;2.77;1.10;;;8.80;99.90;;;;;;4978080;28;20482;-82
2023/11/10 06:29:55;;;;;;;1.90;1.13;;;8.80;99.90;;;;;;4976737;28;20486;-82
2023/11/10 06:32:21;;;;;;;1.83;1.00;;;8.90;99.90;;;;;;4978273;28;20466;-84
2023/11/10 06:34:48;;;;;;;4.00;1.60;;;8.90;99.90;;;;;;4978192;28;20478;-84
2023/11/10 06:37:15;;;;;;;3.77;1.13;;;8.90;99.90;;;;;;4977919;28;20466;-84
2023/11/10 06:39:42;;;;;;;3.30;0.93;;;8.90;99.90;;;;;;4977422;28;20459;-82
2023/11/10 06:42:09;;;;;;;1.67;0.83;;;9.00;99.90;;;;;;4977287;28;20846;-85
2023/11/10 06:44:38;;;;;;;2.47;1.30;;;9.00;99.90;;;;;;4977001;28;20496;-83
2023/11/10 06:47:07;;;;;;;7.20;1.07;;;9.00;99.90;;;;;;4974577;28;20469;-81
2023/11/10 06:49:33;;;;;;;2.80;0.97;;;9.00;99.90;;;;;;4978421;28;20461;-82
2023/11/10 06:52:00;;;;;;;5.33;1.20;;;9.10;99.90;;;;;;4991403;28;20482;-82
2023/11/10 06:54:27;;;;;;;5.40;1.47;;;9.10;99.90;;;;;;4990711;28;20509;-79
2023/11/10 06:56:54;;;;;;;3.90;1.27;;;9.10;99.90;;;;;;4988573;28;20461;-79
2023/11/10 06:59:21;;;;;;;3.67;1.00;;;9.10;99.90;;;;;;4991033;28;20462;-79
2023/11/10 07:01:50;;;;;;;4.33;1.70;;;9.20;99.90;;;;;;4990163;28;20447;-82
2023/11/10 07:04:17;;;;;;;2.80;1.13;;;9.20;99.90;;;;;;4980371;28;22547;-79
2023/11/10 07:06:44;;;;;;;3.90;1.57;;;9.20;99.90;;;;;;4978118;28;20453;-82
2023/11/10 07:09:12;;;;;;;3.00;1.17;;;9.10;99.90;;;;;;4975658;28;20479;-82
2023/11/10 07:11:40;;;;;;;3.13;1.10;;;9.20;99.90;;;;;;4977791;28;20501;-80
2023/11/10 07:14:07;;;;;;;3.40;1.20;;;9.20;99.90;;;;;;4975419;28;20845;-82
2023/11/10 07:16:36;;;;;;;1.90;0.90;;;9.00;99.90;;;;;;4975569;28;20553;-81
2023/11/10 07:19:05;;;;;;;2.23;1.30;;;9.00;99.90;;;;;;4972162;28;20496;-83
2023/11/10 07:21:31;;;;;;;5.33;1.60;;;9.00;99.90;;;;;;4974304;28;20451;-83
2023/11/10 07:23:59;;;;;;;3.30;1.07;;;9.10;99.90;;;;;;4976301;28;21108;-85
2023/11/10 07:26:25;;;;;;;3.20;1.17;;;9.10;99.90;;;;;;4977989;28;20482;-82
2023/11/10 07:28:52;;;;;;;6.13;1.10;;;9.20;99.90;;;;;;4977659;28;20453;-83
2023/11/10 07:31:19;;;;;;;2.47;1.03;;;9.20;99.90;;;;;;4978769;28;20498;-83
2023/11/10 07:33:46;;;;;;;6.53;1.30;;;9.20;99.20;;;;;;4975102;28;20468;-83
2023/11/10 07:36:14;;;;;;;2.80;0.97;;;9.20;97.60;;;;;;4976329;28;20479;-83
2023/11/10 07:38:41;;;;;;;2.07;1.23;;;9.30;99.90;;;;;;4981139;28;20518;-82
2023/11/10 07:41:08;;;;;;;3.90;0.90;;;9.30;78.80;;;;;;4978412;28;20538;-81
2023/11/10 07:43:36;;;;;;;4.83;1.10;;;9.30;59.50;;;;;;4981698;28;20521;-81
2023/11/10 07:46:04;;;;;;;2.13;0.90;;;9.30;41.20;;;;;;4978809;28;20490;-83
2023/11/10 07:48:31;;;;;;;2.63;1.03;;;9.20;70.60;;;;;;4976554;28;20735;-84
2023/11/10 07:50:58;;;;;;;2.93;1.50;;;9.30;95.30;;;;;;4977880;28;20493;-81
2023/11/10 07:53:27;;;;;;;2.57;1.30;;;9.30;98.20;;;;;;4977050;28;20468;-82
2023/11/10 07:55:54;;;;;;;5.03;0.97;;;9.30;56.80;;;;;;4977422;28;20464;-81
2023/11/10 07:58:21;;;;;;;1.87;0.90;;;9.30;47.10;;;;;;4977328;28;20480;-81
2023/11/10 08:00:48;;;;;;;4.43;1.17;;;9.40;74.10;;;;;;4974133;28;20467;-82
2023/11/10 08:03:17;;;;;;;3.27;1.10;;;9.50;66.00;;;;;;4975966;28;20451;-82
2023/11/10 08:05:46;;;;;;;3.37;1.00;;;9.50;62.40;;;;;;4974099;28;20534;-83
2023/11/10 08:08:13;;;;;;;3.20;1.37;;;9.30;51.70;;;;;;4976169;28;20526;-84
2023/11/10 08:10:41;;;;;;;4.13;0.93;;;9.30;40.10;;;;;;4980018;28;20553;-82
2023/11/10 08:13:08;;;;;;;3.53;1.30;;;9.30;70.00;;;;;;4985126;28;20534;-80
2023/11/10 08:15:35;;;;;;;3.50;1.07;;;9.20;86.90;;;;;;4983484;28;20474;-81
2023/11/10 08:18:02;;;;;;;3.30;1.20;;;9.10;87.30;;;;;;4978869;28;20892;-83
2023/11/10 08:20:29;;;;;;;2.33;1.00;;;9.10;85.30;;;;;;4983262;28;20455;-81
2023/11/10 08:22:57;;;;;;;3.90;1.10;;;9.10;96.00;;;;;;4984115;28;20466;-83
2023/11/10 08:25:24;;;;;;;5.93;1.10;;;9.10;76.80;;;;;;4975326;28;20477;-84
2023/11/10 08:27:52;;;;;;;3.30;1.00;;;9.20;92.00;;;;;;4977382;28;20466;-84
2023/11/10 08:30:19;;;;;;;5.40;1.30;;;9.20;69.60;;;;;;4975610;28;20466;-82
2023/11/10 08:32:46;;;;;;;4.00;1.10;;;9.30;46.80;;;;;;4975686;28;20462;-82
2023/11/10 08:35:16;;;;;;;4.17;1.60;;;9.40;27.00;;;;;;4980894;28;20567;-83
2023/11/10 08:37:43;;;;;;;2.07;1.23;;;9.40;28.80;;;;;;4972978;28;20490;-82
2023/11/10 08:40:11;;;;;;;2.10;1.00;;;9.50;6.60;;;;;;4954929;28;20468;-83
2023/11/10 08:42:41;;;;;;;9.03;1.40;;;9.50;18.80;;;;;;4971316;28;20480;-83
2023/11/10 08:45:11;;;;;;;4.00;1.10;;;9.60;22.40;;;;;;4973526;28;20570;-80
2023/11/10 08:47:40;;;;;;;2.90;1.20;;;9.70;1.00;;;;;;4977371;28;20493;-83
2023/11/10 08:50:10;;;;;;;4.77;1.30;;;9.80;1.00;;;;;;4977142;28;20522;-82
2023/11/10 08:52:38;;;;;;;2.53;1.07;;;9.90;5.50;;;;;;4976288;28;20498;-82
2023/11/10 08:55:05;;;;;;;2.30;1.20;;;10.00;1.00;;;;;;4970909;28;21156;-81
2023/11/10 08:57:32;;;;;;;3.23;1.37;;;10.00;1.00;;;;;;4976879;28;20459;-80
2023/11/10 09:00:00;;;;;;;2.87;1.40;;;10.00;1.00;;;;;;4972980;28;20536;-82
2023/11/10 09:02:28;;;;;;;5.20;1.17;;;10.10;1.00;;;;;;4976483;28;20487;-80
2023/11/10 09:04:57;;;;;;;3.43;1.00;;;10.10;1.00;;;;;;4970717;28;20507;-80
2023/11/10 09:07:24;;;;;;;3.57;1.17;;;10.10;1.00;;;;;;4975470;28;20740;-83
2023/11/10 09:09:51;;;;;;;4.23;1.47;;;10.10;1.00;;;;;;4975550;28;20549;-81
2023/11/10 09:12:21;;;;;;;2.33;0.90;;;10.20;1.00;;;;;;4976312;28;21012;-82
2023/11/10 09:14:47;;;;;;;5.03;1.50;;;10.30;1.00;;;;;;4974355;28;20482;-83
2023/11/10 09:17:14;;;;;;;3.57;1.30;;;10.20;1.00;;;;;;4970786;28;20466;-83
2023/11/10 09:19:42;;;;;;;2.20;1.00;;;10.30;1.00;;;;;;4973429;28;20547;-81
2023/11/10 09:22:09;;;;;;;3.40;1.10;;;10.30;1.00;;;;;;4971568;28;20554;-79
2023/11/10 09:24:36;;;;;;;4.77;1.47;;;10.30;1.00;;;;;;4971619;28;20481;-82
2023/11/10 09:27:05;;;;;;;4.83;1.30;;;10.30;1.00;;;;;;4974593;28;20466;-79
2023/11/10 09:29:33;;;;;;;4.60;1.00;;;10.20;1.00;;;;;;4974618;28;21028;-81
2023/11/10 09:31:59;;;;;;;3.10;1.10;;;10.40;1.00;;;;;;4977997;28;20528;-81
2023/11/10 09:34:27;;;;;;;4.57;1.10;;;10.40;1.00;;;;;;4979726;28;20954;-81
2023/11/10 09:36:55;;;;;;;2.87;1.00;;;10.40;1.00;;;;;;4978720;28;20822;-79
2023/11/10 09:39:23;;;;;;;2.37;0.80;;;10.40;1.00;;;;;;4975107;28;20579;-81
2023/11/10 09:41:51;;;;;;;3.67;1.20;;;10.40;1.00;;;;;;4976458;28;20459;-81
2023/11/10 09:44:20;;;;;;;3.77;1.30;;;10.40;1.00;;;;;;4977174;28;20479;-79
2023/11/10 09:46:48;;;;;;;3.10;1.17;;;10.50;1.00;;;;;;4976912;28;20477;-81
2023/11/10 09:49:15;;;;;;;2.20;1.00;;;10.60;1.00;;;;;;4976191;28;20469;-81
2023/11/10 09:51:43;;;;;;;2.23;1.03;;;10.80;1.00;;;;;;4976233;28;21279;-81
2023/11/10 09:54:11;;;;;;;3.30;1.83;;;10.80;1.00;;;;;;4977049;28;20959;-79
2023/11/10 09:56:39;;;;;;;3.97;1.10;;;11.00;99.90;;;;;;4977129;28;20466;-80
2023/11/10 09:59:07;;;;;;;2.33;0.90;;;11.00;1.00;;;;;;4975879;28;20487;-82
2023/11/10 10:01:34;;;;;;;7.50;3.20;;;11.10;99.90;;;;;;4976097;28;20447;-83
2023/11/10 10:04:01;;;;;;;3.70;1.60;;;11.10;99.90;;;;;;4978506;28;20467;-80
2023/11/10 10:06:28;;;;;;;3.57;1.40;;;11.20;99.90;;;;;;4993696;28;20462;-80
2023/11/10 10:08:55;;;;;;;5.70;1.10;;;11.30;99.90;;;;;;4993535;28;20482;-79
2023/11/10 10:11:23;;;;;;;4.30;1.93;;;11.20;99.90;;;;;;4993707;28;20492;-81
2023/11/10 10:13:50;;;;;;;4.20;1.20;;;11.30;99.90;;;;;;4994504;28;20484;-81
2023/11/10 10:16:17;;;;;;;2.90;1.23;;;11.30;99.90;;;;;;4993803;28;20614;-82
2023/11/10 10:18:46;;;;;;;4.10;1.10;;;11.30;99.90;;;;;;4987663;28;20915;-83
2023/11/10 10:21:13;;;;;;;5.20;1.00;;;11.20;99.90;;;;;;4984847;28;20516;-80
2023/11/10 10:23:40;;;;;;;4.03;1.20;;;11.10;99.90;;;;;;4986190;28;20554;-83
2023/11/10 10:26:12;;;;;;;17.63;1.63;;;11.00;99.90;;;;;;4986559;28;20483;-81
2023/11/10 10:28:40;;;;;;;4.43;1.20;;;10.90;1.00;;;;;;4980289;28;20459;-82
2023/11/10 10:31:07;;;;;;;6.87;1.10;;;10.90;99.90;;;;;;4981058;28;20916;-81
2023/11/10 10:33:35;;;;;;;4.63;1.80;;;11.10;99.90;;;;;;4981077;28;20465;-82
2023/11/10 10:36:03;;;;;;;3.83;1.37;;;11.10;99.90;;;;;;4979033;28;21033;-81
2023/11/10 10:38:34;;;;;;;4.13;2.07;;;11.10;99.90;;;;;;4980971;28;20506;-81
2023/11/10 10:41:03;;;;;;;4.13;1.20;;;11.20;99.90;;;;;;4978806;28;20460;-81
2023/11/10 10:43:31;;;;;;;4.83;1.10;;;11.50;1.00;;;;;;4976691;28;20553;-82
2023/11/10 10:46:01;;;;;;;5.60;1.57;;;11.80;99.90;;;;;;4980883;28;20472;-81
2023/11/10 10:48:30;;;;;;;3.70;1.20;;;12.10;99.90;;;;;;4980051;28;20444;-82
2023/11/10 10:50:59;;;;;;;3.43;1.00;;;12.20;1.00;;;;;;4980439;28;20470;-82
2023/11/10 10:53:27;;;;;;;3.40;1.17;;;12.20;1.00;;;;;;4980524;28;20997;-82
2023/11/10 10:55:58;;;;;;;4.33;1.27;;;12.30;1.00;;;;;;4980693;28;20490;-80
2023/11/10 10:58:24;;;;;;;6.17;1.10;;;12.20;1.00;;;;;;4980503;28;20714;-80
2023/11/10 11:00:51;;;;;;;4.03;1.40;;;12.20;99.90;;;;;;4979510;28;20500;-83
2023/11/10 11:03:43;;;;;;;3.77;1.43;;;12.20;77.20;;;;;;4978771;28;20548;-80
2023/11/10 11:06:22;;;;;;;2.37;1.10;;;12.40;99.90;;;;;;4961392;28;20498;-81
2023/11/10 11:09:06;;;;;;;6.53;1.10;;;12.80;99.90;;;;;;4968985;28;20544;-81
2023/11/10 11:11:55;;;;;;;2.60;1.00;;;14.00;1.00;;;;;;4969887;28;20871;-83
2023/11/10 11:14:37;;;;;;;2.97;1.77;;;15.50;1.00;;;;;;4971377;28;20483;-81
2023/11/10 11:17:34;;;;;;;3.87;1.57;;;17.10;1.00;;;;;;4971183;28;20474;-81
2023/11/10 11:20:03;;;;;;;6.93;1.77;;;16.70;1.00;;;;;;4970833;28;20812;-80
2023/11/10 11:22:32;;;;;;;6.73;1.40;;;16.40;1.00;;;;;;4969104;28;20459;-83
2023/11/10 11:25:08;;;;;;;5.43;1.70;;;15.60;1.00;;;;;;4967344;28;20517;-82
2023/11/10 11:27:36;;;;;;;4.37;1.57;;;15.10;1.00;;;;;;4972373;28;20451;-83
2023/11/10 11:30:08;;;;;;;5.03;1.20;;;14.70;1.00;;;;;;4975918;28;20869;-82
2023/11/10 11:32:39;;;;;;;5.23;1.17;;;13.90;1.00;;;;;;4979516;28;21102;-83
2023/11/10 11:35:12;;;;;;;2.03;1.00;;;13.50;36.70;;;;;;4976465;28;20479;-79
2023/11/10 11:37:39;;;;;;;6.00;1.60;;;12.80;1.00;;;;;;4979682;28;20462;-82
2023/11/10 11:40:09;;;;;;;3.63;1.00;;;12.60;99.90;;;;;;4977615;28;20504;-81
2023/11/10 11:42:37;;;;;;;2.97;1.10;;;12.40;99.90;;;;;;4979778;28;20454;-83
2023/11/10 11:45:11;;;;;;;4.00;1.47;;;12.20;99.90;;;;;;4979463;28;20488;-82
2023/11/10 11:47:38;;;;;;;8.73;1.20;;;12.20;1.00;;;;;;4977047;28;20452;-82
2023/11/10 11:50:09;;;;;;;4.97;1.17;;;12.30;99.90;;;;;;4971722;28;20962;-83
2023/11/10 11:52:36;;;;;;;3.77;1.20;;;12.10;1.00;;;;;;4970063;28;20540;-81
2023/11/10 11:55:04;;;;;;;3.20;1.10;;;11.90;99.90;;;;;;4960816;28;20480;-82
2023/11/10 11:57:34;;;;;;;5.60;1.30;;;11.50;1.00;;;;;;4966751;28;20508;-83
2023/11/10 12:00:02;;;;;;;6.47;2.10;;;11.30;99.90;;;;;;4968864;28;20461;-83
2023/11/10 12:02:29;;;;;;;6.03;1.40;;;11.00;1.00;;;;;;4964101;28;20487;-81
2023/11/10 12:04:55;;;;;;;4.37;1.40;;;10.90;1.00;;;;;;4978679;28;20478;-84
2023/11/10 12:07:24;;;;;;;3.50;1.10;;;10.70;1.00;;;;;;4973698;28;20460;-80
2023/11/10 12:09:51;;;;;;;2.47;1.10;;;10.80;1.00;;;;;;4962453;28;20467;-82
2023/11/10 12:12:18;;;;;;;5.10;1.07;;;10.80;1.00;;;;;;4976055;28;20496;-83
2023/11/10 12:14:45;;;;;;;4.90;1.13;;;10.80;1.00;;;;;;4971956;28;20512;-80
2023/11/10 12:17:12;;;;;;;3.00;1.43;;;11.00;1.00;;;;;;4974591;28;20493;-81
2023/11/10 12:19:39;;;;;;;8.53;1.63;;;11.10;99.90;;;;;;4977044;28;20456;-79
2023/11/10 12:22:06;;;;;;;4.63;1.20;;;11.30;99.90;;;;;;4973064;28;20466;-80
2023/11/10 12:24:35;;;;;;;6.27;1.47;;;11.20;99.90;;;;;;4972749;28;20484;-81
2023/11/10 12:27:03;;;;;;;4.30;1.13;;;11.10;1.00;;;;;;4973083;28;20468;-82
2023/11/10 12:29:31;;;;;;;3.30;1.00;;;11.00;1.00;;;;;;4976009;28;20452;-80
2023/11/10 12:31:58;;;;;;;5.13;1.17;;;11.00;1.00;;;;;;4974199;28;21059;-79
2023/11/10 12:34:26;;;;;;;5.37;1.50;;;10.90;1.00;;;;;;4970627;28;20892;-78
2023/11/10 12:36:54;;;;;;;3.20;1.03;;;10.80;1.00;;;;;;4970635;28;20455;-82
2023/11/10 12:39:22;;;;;;;2.50;1.23;;;10.60;1.00;;;;;;4977863;28;20503;-84
2023/11/10 12:41:52;;;;;;;5.13;1.47;;;10.70;1.00;;;;;;4979066;28;20889;-82
2023/11/10 12:44:20;;;;;;;3.00;1.10;;;10.70;1.00;;;;;;4978361;28;20541;-84
2023/11/10 12:46:54;;;;;;;3.90;1.20;;;10.70;1.00;;;;;;4978073;28;20462;-83
2023/11/10 12:49:23;;;;;;;4.40;1.20;;;10.70;1.00;;;;;;4978427;28;20459;-83
2023/11/10 12:51:50;;;;;;;3.67;1.13;;;10.70;1.00;;;;;;4978318;28;20491;-82
2023/11/10 12:54:21;;;;;;;5.30;1.00;;;10.40;1.00;;;;;;4976643;28;20460;-84
2023/11/10 12:56:50;;;;;;;2.03;0.97;;;10.50;1.00;;;;;;4976919;28;21010;-82
2023/11/10 12:59:24;;;;;;;4.70;1.37;;;10.50;1.00;;;;;;4979176;28;20462;-83